Time;durP1;ratioP1;P1;durP2;ratioP2;P2;SDS_P1;SDS_P2;PMS_P1;PMS_P2;Temp;Humidity;BMP_temperature;BMP_pressure;BME280_temperature;BME280_humidity;BME280_pressure;Samples;Min_cycle;Max_cycle;Signal;HPM_P1;HPM_P2
2021/12/05 00:24:11;;;;;;;52.47;28.17;;;-1.50;99.90;;;;;;5064772;28;20196;-63
2021/12/05 00:26:39;;;;;;;51.80;27.93;;;-1.50;99.90;;;;;;5093065;28;20192;-62
2021/12/05 00:29:20;;;;;;;43.40;24.90;;;-1.40;99.90;;;;;;5091796;28;20207;-63
2021/12/05 00:32:01;;;;;;;53.43;27.97;;;-1.40;99.90;;;;;;5092418;28;20204;-64
2021/12/05 00:46:02;;;;;;;44.57;24.63;;;-1.30;99.90;;;;;;5087027;28;20329;-64
2021/12/05 00:49:00;;;;;;;45.77;25.40;;;-1.30;99.90;;;;;;5092205;28;20303;-64
2021/12/05 01:00:06;;;;;;;43.03;23.47;;;-1.20;99.90;;;;;;5090154;28;20229;-63
2021/12/05 01:02:46;;;;;;;42.07;24.57;;;-1.20;99.90;;;;;;5082335;28;20253;-64
2021/12/05 01:08:17;;;;;;;45.57;26.30;;;-1.20;99.90;;;;;;5071286;28;20185;-65
2021/12/05 01:11:04;;;;;;;49.23;28.13;;;-1.10;99.90;;;;;;5071794;28;20220;-64
2021/12/05 01:13:38;;;;;;;46.27;25.20;;;-1.20;99.90;;;;;;5071489;28;20258;-63
2021/12/05 01:16:09;;;;;;;50.13;28.80;;;-1.20;99.90;;;;;;5071390;28;20221;-66
2021/12/05 01:18:37;;;;;;;52.40;29.13;;;-1.20;99.90;;;;;;5080590;28;20193;-63
2021/12/05 01:21:08;;;;;;;57.20;30.67;;;-1.30;99.90;;;;;;5091244;28;20234;-63
2021/12/05 01:23:44;;;;;;;50.40;28.67;;;-1.30;99.90;;;;;;5091880;28;20188;-64
2021/12/05 01:26:16;;;;;;;46.97;25.13;;;-1.40;99.90;;;;;;5091677;28;20199;-64
2021/12/05 01:29:00;;;;;;;47.57;26.60;;;-1.40;99.90;;;;;;5091372;28;20184;-64
2021/12/05 01:31:35;;;;;;;48.33;27.00;;;-1.30;99.90;;;;;;5091765;28;20191;-64
2021/12/05 01:34:14;;;;;;;52.93;26.90;;;-1.30;99.90;;;;;;5091582;28;20192;-63
2021/12/05 01:36:54;;;;;;;46.77;27.10;;;-1.30;99.90;;;;;;5091431;28;20184;-63
2021/12/05 01:39:33;;;;;;;47.10;25.77;;;-1.30;99.90;;;;;;5091462;28;20237;-64
2021/12/05 01:53:20;;;;;;;47.60;27.27;;;-1.30;99.90;;;;;;5094895;28;20245;-63
2021/12/05 01:56:20;;;;;;;48.50;26.90;;;-1.30;99.90;;;;;;5095072;28;20226;-64
2021/12/05 02:02:09;;;;;;;52.43;28.30;;;-1.40;99.90;;;;;;5094854;28;20725;-64
2021/12/05 02:30:00;;;;;;;49.47;25.20;;;-1.60;99.90;;;;;;5089149;28;20191;-63
2021/12/05 02:32:53;;;;;;;46.53;25.70;;;-1.60;99.90;;;;;;5089175;28;20215;-63
2021/12/05 02:35:36;;;;;;;48.03;25.90;;;-1.60;99.90;;;;;;5089063;28;20204;-65
2021/12/05 02:38:35;;;;;;;44.90;26.37;;;-1.60;99.90;;;;;;5086791;28;20242;-64
2021/12/05 02:41:09;;;;;;;47.47;25.53;;;-1.60;99.90;;;;;;5082899;28;20199;-63
2021/12/05 02:43:39;;;;;;;44.30;24.10;;;-1.80;99.90;;;;;;5088903;28;20237;-64
2021/12/05 02:46:09;;;;;;;48.77;25.60;;;-1.80;99.90;;;;;;5083334;28;20573;-64
2021/12/05 02:48:37;;;;;;;52.00;27.57;;;-1.80;99.90;;;;;;5088943;28;20208;-64
2021/12/05 02:51:09;;;;;;;47.17;25.07;;;-1.80;99.90;;;;;;5088458;28;20253;-64
2021/12/05 02:53:41;;;;;;;42.93;23.97;;;-1.80;99.90;;;;;;5088726;28;20192;-64
2021/12/05 02:56:09;;;;;;;45.70;25.37;;;-1.80;99.90;;;;;;5088908;28;20195;-64
2021/12/05 02:58:41;;;;;;;41.80;23.33;;;-1.80;99.90;;;;;;5088568;28;20200;-63
2021/12/05 03:01:20;;;;;;;45.20;25.40;;;-1.80;99.90;;;;;;5088742;28;20216;-63
2021/12/05 03:03:48;;;;;;;45.77;25.57;;;-1.80;99.90;;;;;;5088442;28;20289;-64
2021/12/05 03:06:21;;;;;;;48.00;25.75;;;-1.80;99.90;;;;;;5088481;28;20524;-65
2021/12/05 03:08:56;;;;;;;44.57;24.50;;;-1.80;99.90;;;;;;5088418;28;20878;-63
2021/12/05 03:11:24;;;;;;;46.97;24.77;;;-1.80;99.90;;;;;;5088549;28;20637;-65
2021/12/05 03:13:51;;;;;;;43.87;22.90;;;-1.80;99.90;;;;;;5088341;28;20210;-67
2021/12/05 03:16:21;;;;;;;48.07;24.40;;;-1.80;99.90;;;;;;5088300;28;20204;-64
2021/12/05 03:18:49;;;;;;;48.90;26.80;;;-1.80;99.90;;;;;;5088188;28;20219;-64
2021/12/05 03:21:16;;;;;;;47.60;24.70;;;-1.80;99.90;;;;;;5088332;28;20685;-64
2021/12/05 03:23:46;;;;;;;43.97;23.90;;;-1.70;99.90;;;;;;5087863;28;20568;-65
2021/12/05 03:26:17;;;;;;;44.60;24.90;;;-1.70;99.90;;;;;;5088317;28;20196;-63
2021/12/05 03:28:45;;;;;;;46.03;24.17;;;-1.70;99.90;;;;;;5080767;28;20560;-64
2021/12/05 03:31:12;;;;;;;38.93;22.53;;;-1.70;99.90;;;;;;5074283;28;20295;-65
2021/12/05 03:33:40;;;;;;;39.97;23.13;;;-1.70;99.90;;;;;;5074054;28;20716;-64
2021/12/05 03:36:10;;;;;;;42.70;24.53;;;-1.70;99.90;;;;;;5074511;28;20212;-63
2021/12/05 03:38:38;;;;;;;41.13;23.57;;;-1.70;99.90;;;;;;5074355;28;20208;-63
2021/12/05 03:41:05;;;;;;;43.93;23.87;;;-1.70;99.90;;;;;;5074464;28;20200;-64
2021/12/05 03:43:34;;;;;;;43.37;24.37;;;-1.70;99.90;;;;;;5057398;28;20197;-64
2021/12/05 03:46:01;;;;;;;44.53;23.03;;;-1.70;99.90;;;;;;5069092;28;20225;-63
2021/12/05 03:48:32;;;;;;;41.50;23.70;;;-1.70;99.90;;;;;;5054343;28;20221;-63
2021/12/05 03:51:00;;;;;;;41.47;23.07;;;-1.70;99.90;;;;;;5054250;28;20213;-63
2021/12/05 03:53:27;;;;;;;41.93;24.17;;;-1.70;99.90;;;;;;5053967;28;20202;-64
2021/12/05 03:55:57;;;;;;;42.07;22.70;;;-1.70;99.90;;;;;;5062279;28;20209;-64
2021/12/05 03:58:25;;;;;;;39.67;22.77;;;-1.70;99.90;;;;;;5071537;28;20201;-63
2021/12/05 04:00:57;;;;;;;37.93;21.30;;;-1.70;99.90;;;;;;5055292;28;20232;-65
2021/12/05 04:03:25;;;;;;;41.63;22.23;;;-1.70;99.90;;;;;;5074181;28;20193;-66
2021/12/05 04:05:52;;;;;;;41.30;23.60;;;-1.60;99.90;;;;;;5073602;28;20201;-63
2021/12/05 04:08:22;;;;;;;38.80;21.40;;;-1.60;99.90;;;;;;5073944;28;20707;-66
2021/12/05 04:10:52;;;;;;;40.53;22.53;;;-1.60;99.90;;;;;;5073726;28;20621;-63
2021/12/05 04:13:20;;;;;;;42.00;23.00;;;-1.60;99.90;;;;;;5073769;28;20201;-64
2021/12/05 04:15:48;;;;;;;39.90;22.47;;;-1.60;99.90;;;;;;5073559;28;20211;-64
2021/12/05 04:18:17;;;;;;;40.90;22.57;;;-1.70;99.90;;;;;;5073412;28;20231;-64
2021/12/05 04:20:44;;;;;;;44.30;24.30;;;-1.70;99.90;;;;;;5068997;28;20219;-65
2021/12/05 04:23:11;;;;;;;42.17;24.60;;;-1.70;99.90;;;;;;5073022;28;20211;-63
2021/12/05 04:25:38;;;;;;;42.70;22.93;;;-1.80;99.90;;;;;;5073341;28;20223;-63
2021/12/05 04:28:07;;;;;;;39.77;22.70;;;-1.80;99.90;;;;;;5073580;28;20684;-63
2021/12/05 04:30:34;;;;;;;43.00;23.23;;;-1.80;99.90;;;;;;5073198;28;20211;-64
2021/12/05 04:33:01;;;;;;;42.10;22.87;;;-1.80;99.90;;;;;;5073456;28;20653;-64
2021/12/05 04:35:29;;;;;;;46.00;24.63;;;-1.80;99.90;;;;;;5073526;28;20208;-64
2021/12/05 04:37:56;;;;;;;45.87;24.47;;;-1.80;99.90;;;;;;5073260;28;20189;-64
2021/12/05 04:40:23;;;;;;;47.47;26.37;;;-1.80;99.90;;;;;;5072398;28;20205;-64
2021/12/05 04:42:50;;;;;;;46.27;25.03;;;-1.80;99.90;;;;;;5073470;28;20687;-63
2021/12/05 04:45:20;;;;;;;39.10;23.70;;;-1.80;99.90;;;;;;5073218;28;20210;-63
2021/12/05 04:47:48;;;;;;;40.53;24.47;;;-1.90;99.90;;;;;;5073434;28;20297;-65
2021/12/05 04:50:16;;;;;;;44.03;24.27;;;-1.80;99.90;;;;;;5073248;28;20205;-63
2021/12/05 04:52:44;;;;;;;50.63;27.40;;;-1.90;99.90;;;;;;5073095;28;20299;-66
2021/12/05 04:55:12;;;;;;;42.67;24.17;;;-1.90;99.90;;;;;;5073109;28;20649;-65
2021/12/05 04:57:40;;;;;;;43.00;23.70;;;-1.90;99.90;;;;;;5072936;28;20220;-63
2021/12/05 05:00:12;;;;;;;46.67;24.93;;;-2.00;99.90;;;;;;5073062;28;20211;-63
2021/12/05 05:02:39;;;;;;;46.93;25.07;;;-1.90;99.90;;;;;;5072954;28;20199;-65
2021/12/05 05:05:07;;;;;;;42.33;24.10;;;-1.90;99.90;;;;;;5072597;28;20672;-63
2021/12/05 05:07:36;;;;;;;44.20;24.53;;;-1.90;99.90;;;;;;5072680;28;20705;-64
2021/12/05 05:10:09;;;;;;;48.63;26.50;;;-2.00;99.90;;;;;;5072577;28;20216;-66
2021/12/05 05:12:36;;;;;;;44.73;23.33;;;-2.00;99.90;;;;;;5072742;28;20633;-65
2021/12/05 05:15:04;;;;;;;44.37;24.73;;;-2.10;99.90;;;;;;5072618;28;20276;-63
2021/12/05 05:17:31;;;;;;;44.17;24.73;;;-2.00;99.90;;;;;;5072110;28;20637;-64
2021/12/05 05:20:01;;;;;;;43.47;24.50;;;-2.00;99.90;;;;;;5072671;28;20661;-64
2021/12/05 05:22:38;;;;;;;48.10;26.47;;;-2.00;99.90;;;;;;5072091;28;20193;-66
2021/12/05 05:30:52;;;;;;;41.07;23.40;;;-2.10;99.90;;;;;;5048363;28;20199;-63
2021/12/05 05:47:04;;;;;;;56.33;31.00;;;-2.30;99.90;;;;;;5071903;28;20297;-65
2021/12/05 05:49:49;;;;;;;50.13;27.60;;;-2.40;99.90;;;;;;5053658;28;20458;-65
2021/12/05 05:52:17;;;;;;;55.73;29.30;;;-2.50;99.90;;;;;;5053368;28;20193;-65
2021/12/05 05:54:47;;;;;;;60.07;28.23;;;-2.40;99.90;;;;;;5067944;28;20193;-66
2021/12/05 05:57:21;;;;;;;49.30;26.40;;;-2.50;99.90;;;;;;5051825;28;20205;-63
2021/12/05 05:59:55;;;;;;;48.17;23.83;;;-2.50;99.90;;;;;;5051836;28;20224;-64
2021/12/05 06:05:07;;;;;;;40.93;22.30;;;-2.40;99.90;;;;;;5057196;28;20271;-65
2021/12/05 06:07:40;;;;;;;44.37;23.10;;;-2.30;99.90;;;;;;5071938;28;20224;-65
2021/12/05 06:10:08;;;;;;;38.67;22.40;;;-2.40;99.90;;;;;;5072015;28;20189;-63
2021/12/05 06:12:36;;;;;;;44.27;24.80;;;-2.30;99.90;;;;;;5071935;28;20570;-64
2021/12/05 06:15:04;;;;;;;41.30;22.03;;;-2.30;99.90;;;;;;5067322;28;20300;-64
2021/12/05 06:17:31;;;;;;;40.67;21.20;;;-2.30;99.90;;;;;;5051410;28;20255;-65
2021/12/05 06:19:58;;;;;;;37.90;21.33;;;-2.30;99.90;;;;;;5051861;28;20563;-63
2021/12/05 06:22:25;;;;;;;38.80;21.63;;;-2.30;99.90;;;;;;5051826;28;20316;-65
2021/12/05 06:24:52;;;;;;;39.17;22.53;;;-2.30;99.90;;;;;;5054208;28;20594;-65
2021/12/05 06:27:19;;;;;;;39.47;21.93;;;-2.30;99.90;;;;;;5069913;28;20296;-64
2021/12/05 06:29:53;;;;;;;40.93;21.50;;;-2.30;99.90;;;;;;5071451;28;20310;-65
2021/12/05 06:36:49;;;;;;;38.43;21.37;;;-2.20;99.90;;;;;;5071691;28;20660;-66
2021/12/05 06:38:10;;;;;;;38.97;21.27;;;-2.10;99.90;;;;;;5059516;28;20197;-66
2021/12/05 06:40:59;;;;;;;35.33;20.13;;;-2.10;99.90;;;;;;5051562;28;20193;-64
2021/12/05 06:46:12;;;;;;;37.10;21.17;;;-2.00;99.90;;;;;;5028540;28;20611;-65
2021/12/05 06:48:39;;;;;;;36.37;20.80;;;-2.00;99.90;;;;;;5068165;28;20258;-66
2021/12/05 06:51:06;;;;;;;36.53;20.43;;;-1.90;99.90;;;;;;5071125;28;20205;-65
2021/12/05 06:53:33;;;;;;;38.77;23.00;;;-1.90;99.90;;;;;;5071541;28;20615;-65
2021/12/05 06:56:00;;;;;;;34.87;21.00;;;-1.90;99.90;;;;;;5070517;28;20203;-64
2021/12/05 06:58:27;;;;;;;35.27;20.40;;;-1.80;99.90;;;;;;5058348;28;20216;-66
2021/12/05 07:00:54;;;;;;;35.10;20.47;;;-1.80;99.90;;;;;;5051475;28;20205;-67
2021/12/05 07:03:22;;;;;;;36.70;20.90;;;-1.80;99.90;;;;;;5052030;28;20205;-64
2021/12/05 07:05:53;;;;;;;41.97;23.40;;;-1.70;99.90;;;;;;5066662;28;20205;-65
2021/12/05 07:08:26;;;;;;;37.77;21.93;;;-1.70;99.90;;;;;;5074992;28;20217;-63
2021/12/05 07:10:59;;;;;;;39.93;22.57;;;-1.70;99.90;;;;;;5074892;28;20233;-64
2021/12/05 07:14:10;;;;;;;41.17;23.60;;;-1.70;99.90;;;;;;5074948;28;20637;-66
2021/12/05 07:16:42;;;;;;;41.20;22.80;;;-1.70;99.90;;;;;;5073529;28;20708;-64
2021/12/05 07:19:29;;;;;;;37.17;23.13;;;-1.70;99.90;;;;;;5074547;28;20544;-69
2021/12/05 07:21:59;;;;;;;36.37;21.43;;;-1.70;99.90;;;;;;5074792;28;20238;-65
2021/12/05 07:24:39;;;;;;;37.87;21.60;;;-1.60;99.90;;;;;;5074214;28;20224;-65
2021/12/05 07:40:19;;;;;;;41.10;22.17;;;-1.60;99.90;;;;;;5068948;28;20509;-65
2021/12/05 07:41:13;;;;;;;42.20;23.50;;;-1.50;99.90;;;;;;5073072;28;20243;-65
2021/12/05 07:43:40;;;;;;;42.83;24.93;;;-1.50;99.90;;;;;;5074450;28;20223;-66
2021/12/05 07:46:07;;;;;;;39.53;22.50;;;-1.40;99.90;;;;;;5074240;28;20205;-65
2021/12/05 07:48:37;;;;;;;37.17;21.60;;;-1.40;99.90;;;;;;5074342;28;20228;-65
2021/12/05 07:51:11;;;;;;;41.43;23.37;;;-1.40;99.90;;;;;;5061249;28;20221;-63
2021/12/05 07:53:48;;;;;;;40.43;21.53;;;-1.30;99.90;;;;;;5054025;28;20194;-66
2021/12/05 07:56:20;;;;;;;35.40;20.90;;;-1.20;99.90;;;;;;5054195;28;20189;-66
2021/12/05 07:58:59;;;;;;;35.93;20.37;;;-1.20;99.90;;;;;;5054387;28;20625;-67
2021/12/05 08:15:16;;;;;;;37.20;20.33;;;-0.80;99.90;;;;;;5053462;28;20188;-64
2021/12/05 08:17:51;;;;;;;36.17;21.60;;;-0.80;99.90;;;;;;5053465;28;20248;-65
2021/12/05 08:20:20;;;;;;;37.60;20.20;;;-0.70;99.90;;;;;;5070452;28;20223;-65
2021/12/05 08:22:48;;;;;;;39.33;21.23;;;-0.60;99.90;;;;;;5073341;28;20211;-63
2021/12/05 08:25:15;;;;;;;36.50;21.33;;;-0.50;99.90;;;;;;5073497;28;20215;-67
2021/12/05 08:27:47;;;;;;;36.00;21.03;;;-0.50;99.90;;;;;;5055497;28;20209;-67
2021/12/05 08:30:23;;;;;;;35.47;19.53;;;-0.40;99.90;;;;;;5053096;28;20197;-65
2021/12/05 08:33:09;;;;;;;32.57;19.17;;;-0.40;99.90;;;;;;5053259;28;20638;-64
2021/12/05 08:39:15;;;;;;;34.67;20.53;;;-0.30;99.90;;;;;;5090175;27;21099;-63
2021/12/05 08:45:01;;;;;;;39.27;20.93;;;-0.20;99.90;;;;;;5089536;28;20208;-64
2021/12/05 09:21:25;;;;;;;39.50;22.13;;;0.30;99.90;;;;;;5060123;28;20192;-66
2021/12/05 09:24:07;;;;;;;38.03;21.83;;;0.40;99.90;;;;;;5088206;28;20204;-68
2021/12/05 09:26:58;;;;;;;42.23;22.30;;;0.50;99.90;;;;;;5088125;28;20619;-66
2021/12/05 09:30:05;;;;;;;46.20;24.73;;;0.60;99.90;;;;;;5088260;28;20210;-66
2021/12/05 10:03:32;;;;;;;48.53;27.00;;;1.10;99.90;;;;;;4979520;28;20756;-65
2021/12/05 10:08:51;;;;;;;48.77;27.97;;;1.20;99.90;;;;;;5074258;28;20284;-64
2021/12/05 10:11:41;;;;;;;51.73;28.23;;;1.20;99.90;;;;;;5074362;28;20203;-68
2021/12/05 10:14:31;;;;;;;53.83;29.33;;;1.30;99.90;;;;;;5074300;28;20628;-65
2021/12/05 10:33:44;;;;;;;40.13;22.27;;;1.70;99.90;;;;;;5073696;28;20189;-65
2021/12/05 10:36:21;;;;;;;37.47;20.80;;;1.70;99.90;;;;;;5073562;28;20228;-65
2021/12/05 10:38:52;;;;;;;36.73;20.03;;;1.80;99.90;;;;;;5073704;28;20238;-66
2021/12/05 10:41:46;;;;;;;36.40;21.30;;;1.90;99.90;;;;;;5082852;28;20203;-64
2021/12/05 10:44:14;;;;;;;42.07;22.37;;;2.00;99.90;;;;;;5086096;28;20227;-67
2021/12/05 10:46:42;;;;;;;37.90;21.73;;;2.00;99.90;;;;;;5084259;28;20193;-66
2021/12/05 10:49:12;;;;;;;41.53;24.13;;;2.10;99.90;;;;;;5072670;28;20625;-66
2021/12/05 10:51:43;;;;;;;41.60;23.37;;;2.20;99.90;;;;;;5077447;28;20221;-64
2021/12/05 10:54:11;;;;;;;46.47;25.80;;;2.20;99.90;;;;;;5081124;28;20629;-64
2021/12/05 10:56:40;;;;;;;37.30;23.50;;;2.20;99.90;;;;;;5074079;28;20529;-66
2021/12/05 10:59:10;;;;;;;41.67;24.17;;;2.10;99.90;;;;;;5089790;28;20220;-66
2021/12/05 11:01:40;;;;;;;44.20;24.50;;;2.10;99.90;;;;;;5092567;28;20617;-66
2021/12/05 11:04:09;;;;;;;43.90;24.27;;;2.10;99.90;;;;;;5093583;28;20323;-66
2021/12/05 11:06:49;;;;;;;45.23;24.67;;;2.10;99.90;;;;;;5093381;28;20204;-68
2021/12/05 11:09:19;;;;;;;41.33;23.87;;;2.10;99.90;;;;;;5093184;28;20556;-66
2021/12/05 11:11:49;;;;;;;43.93;26.17;;;2.20;99.90;;;;;;5093085;28;20208;-65
2021/12/05 11:14:20;;;;;;;43.37;25.03;;;2.20;99.90;;;;;;5093236;28;20250;-65
2021/12/05 11:16:59;;;;;;;42.10;25.47;;;2.10;99.90;;;;;;5092924;28;20235;-64
2021/12/05 11:19:30;;;;;;;44.03;23.77;;;2.10;99.90;;;;;;5093045;28;20188;-64
2021/12/05 11:22:05;;;;;;;44.30;25.37;;;1.90;99.90;;;;;;5093131;28;20196;-64
2021/12/05 11:24:34;;;;;;;46.93;25.40;;;1.90;99.90;;;;;;5092867;28;20202;-67
2021/12/05 11:27:12;;;;;;;43.30;24.30;;;1.80;99.90;;;;;;5093048;28;20196;-67
2021/12/05 11:29:52;;;;;;;41.10;24.03;;;1.80;99.90;;;;;;5092946;28;20196;-66
2021/12/05 11:32:27;;;;;;;39.90;23.13;;;1.80;99.90;;;;;;5093036;28;20202;-64
2021/12/05 11:34:54;;;;;;;38.53;22.10;;;1.70;99.90;;;;;;5092925;28;20203;-65
2021/12/05 11:37:22;;;;;;;43.30;22.57;;;1.80;99.90;;;;;;5092637;28;20595;-65
2021/12/05 11:39:50;;;;;;;40.00;22.00;;;1.80;99.90;;;;;;5092857;28;20204;-66
2021/12/05 11:42:20;;;;;;;43.00;23.27;;;1.90;99.90;;;;;;5092618;28;20211;-65
2021/12/05 11:44:49;;;;;;;40.60;23.10;;;1.90;99.90;;;;;;5092687;28;20407;-64
2021/12/05 11:47:19;;;;;;;42.77;24.33;;;2.00;99.90;;;;;;5092856;28;20570;-66
2021/12/05 11:49:46;;;;;;;46.77;25.07;;;2.00;99.90;;;;;;5092606;28;20199;-68
2021/12/05 11:52:13;;;;;;;41.33;23.47;;;2.00;99.90;;;;;;5092825;28;20589;-66
2021/12/05 11:54:45;;;;;;;40.90;23.70;;;2.00;99.90;;;;;;5092419;28;20214;-64
2021/12/05 11:57:14;;;;;;;38.67;22.97;;;1.80;99.90;;;;;;5093450;28;20671;-65
2021/12/05 11:59:42;;;;;;;41.47;22.93;;;1.70;99.90;;;;;;5092667;28;20207;-66
2021/12/05 12:02:12;;;;;;;41.07;23.10;;;1.60;99.90;;;;;;5092374;28;20211;-68
2021/12/05 12:04:49;;;;;;;39.60;21.37;;;1.50;99.90;;;;;;5092466;28;20993;-66
2021/12/05 12:07:24;;;;;;;40.93;22.47;;;1.50;99.90;;;;;;5092657;28;20191;-66
2021/12/05 12:09:56;;;;;;;35.00;19.77;;;1.50;99.90;;;;;;5092640;28;20199;-66
2021/12/05 12:12:24;;;;;;;36.40;20.30;;;1.50;99.90;;;;;;5091723;28;20201;-66
2021/12/05 12:14:51;;;;;;;35.80;20.43;;;1.50;99.90;;;;;;5092441;28;20212;-67
2021/12/05 12:17:18;;;;;;;35.23;19.33;;;1.60;99.90;;;;;;5092316;28;20684;-69
2021/12/05 12:19:47;;;;;;;45.43;22.93;;;1.50;99.90;;;;;;5092085;28;20219;-67
2021/12/05 12:22:16;;;;;;;39.80;21.50;;;1.60;99.90;;;;;;5092179;28;20318;-66
2021/12/05 12:24:43;;;;;;;42.70;21.27;;;1.60;99.90;;;;;;5091871;28;20211;-66
2021/12/05 12:27:13;;;;;;;39.20;21.40;;;1.60;99.90;;;;;;5092361;28;20200;-68
2021/12/05 12:29:40;;;;;;;38.50;21.00;;;1.60;99.90;;;;;;5091684;28;20211;-66
2021/12/05 12:32:12;;;;;;;41.87;22.07;;;1.70;99.90;;;;;;5091811;28;20254;-67
2021/12/05 12:34:42;;;;;;;37.30;20.27;;;1.70;99.90;;;;;;5091959;28;20193;-66
2021/12/05 12:37:10;;;;;;;35.80;19.00;;;1.70;99.90;;;;;;5091906;28;20296;-65
2021/12/05 12:39:40;;;;;;;38.87;20.70;;;1.70;99.90;;;;;;5092196;28;20253;-65
2021/12/05 12:42:16;;;;;;;38.30;21.37;;;1.70;99.90;;;;;;5091889;28;20188;-67
2021/12/05 12:45:11;;;;;;;37.77;20.13;;;1.70;99.90;;;;;;5091965;28;20199;-64
2021/12/05 12:47:40;;;;;;;36.03;19.83;;;1.70;99.90;;;;;;5092021;28;20673;-66
2021/12/05 12:50:34;;;;;;;40.03;20.27;;;1.70;99.90;;;;;;5091745;28;20204;-64
2021/12/05 12:53:10;;;;;;;36.57;20.87;;;1.70;99.90;;;;;;5091836;28;20279;-69
2021/12/05 12:55:40;;;;;;;46.67;23.50;;;1.60;99.90;;;;;;5091844;28;20199;-68
2021/12/05 12:58:12;;;;;;;41.97;22.70;;;1.70;99.90;;;;;;5092018;28;20220;-66
2021/12/05 13:00:43;;;;;;;46.53;23.57;;;1.70;99.90;;;;;;5091896;28;20189;-66
2021/12/05 13:03:27;;;;;;;45.90;23.93;;;1.70;99.90;;;;;;5091653;28;20450;-65
2021/12/05 13:11:50;;;;;;;50.47;25.57;;;1.50;99.90;;;;;;5091785;28;20209;-66
2021/12/05 13:14:19;;;;;;;46.43;24.20;;;1.30;99.90;;;;;;5091606;28;20199;-67
2021/12/05 13:16:48;;;;;;;46.80;24.83;;;1.30;99.90;;;;;;5091760;28;20215;-67
2021/12/05 13:19:18;;;;;;;50.47;26.07;;;1.30;99.90;;;;;;5091572;28;20703;-66
2021/12/05 13:21:47;;;;;;;63.60;29.83;;;1.30;99.90;;;;;;5091775;28;20192;-66
2021/12/05 13:24:25;;;;;;;57.33;28.70;;;1.20;99.90;;;;;;5093513;28;20679;-66
2021/12/05 13:26:54;;;;;;;53.70;28.03;;;1.10;99.90;;;;;;5095483;28;20616;-66
2021/12/05 13:29:25;;;;;;;55.60;26.87;;;1.10;99.90;;;;;;5095925;28;20204;-66
2021/12/05 13:31:57;;;;;;;56.10;28.20;;;1.20;99.90;;;;;;5095555;28;20200;-66
2021/12/05 13:34:36;;;;;;;54.53;28.80;;;1.10;99.90;;;;;;5095066;28;20192;-66
2021/12/05 13:37:37;;;;;;;58.57;28.80;;;1.10;99.90;;;;;;5095148;28;20232;-68
2021/12/05 13:40:15;;;;;;;59.57;29.73;;;1.10;99.90;;;;;;5052354;28;20201;-68
2021/12/05 13:42:47;;;;;;;56.27;29.00;;;1.10;99.90;;;;;;5052468;28;20655;-66
2021/12/05 13:45:29;;;;;;;54.07;27.57;;;1.10;99.90;;;;;;5052196;28;20267;-67
2021/12/05 13:48:20;;;;;;;58.33;31.13;;;1.10;99.90;;;;;;5052371;28;20200;-67
2021/12/05 13:50:57;;;;;;;58.53;30.20;;;1.00;99.90;;;;;;5052346;28;20215;-67
2021/12/05 13:53:29;;;;;;;58.93;29.97;;;0.90;99.90;;;;;;5052015;28;20231;-66
2021/12/05 13:56:02;;;;;;;63.53;31.77;;;0.90;99.90;;;;;;5052338;28;20201;-66
2021/12/05 13:58:40;;;;;;;62.73;32.03;;;0.80;99.90;;;;;;5052196;28;20228;-67
2021/12/05 14:01:12;;;;;;;67.47;32.40;;;0.80;99.90;;;;;;5052053;28;20259;-65
2021/12/05 14:03:58;;;;;;;62.60;31.87;;;0.70;99.90;;;;;;5052252;28;20231;-65
2021/12/05 14:06:47;;;;;;;60.37;30.33;;;0.60;99.90;;;;;;5051987;28;20203;-65
2021/12/05 14:09:18;;;;;;;61.03;30.60;;;0.60;99.90;;;;;;5052204;28;20312;-66
2021/12/05 14:11:52;;;;;;;60.90;30.23;;;0.50;99.90;;;;;;5086605;28;20214;-66
2021/12/05 14:14:21;;;;;;;60.83;31.13;;;0.40;99.90;;;;;;5094657;28;20198;-65
2021/12/05 14:16:52;;;;;;;60.70;31.23;;;0.40;99.90;;;;;;5094479;28;20211;-66
2021/12/05 14:19:23;;;;;;;59.43;31.07;;;0.30;99.90;;;;;;5094145;28;20219;-65
2021/12/05 14:21:52;;;;;;;63.67;32.00;;;0.30;99.90;;;;;;5094510;28;20575;-67
2021/12/05 14:24:23;;;;;;;65.50;32.10;;;0.30;99.90;;;;;;5094070;28;20244;-66
2021/12/05 14:26:52;;;;;;;65.60;31.50;;;0.20;99.90;;;;;;5094673;28;20196;-68
2021/12/05 14:29:21;;;;;;;66.97;33.10;;;0.20;99.90;;;;;;5094145;28;20660;-67
2021/12/05 14:31:52;;;;;;;65.17;32.57;;;0.10;99.90;;;;;;5094177;28;20561;-67
2021/12/05 14:34:19;;;;;;;73.07;34.93;;;0.10;99.90;;;;;;5094194;28;20198;-66
2021/12/05 14:36:50;;;;;;;69.27;33.80;;;0.10;99.90;;;;;;5093830;28;20258;-68
2021/12/05 14:39:22;;;;;;;73.20;33.90;;;0.00;99.90;;;;;;5094265;28;20223;-68
2021/12/05 14:41:51;;;;;;;67.20;32.77;;;0.00;99.90;;;;;;5094361;28;20599;-66
2021/12/05 14:44:20;;;;;;;65.33;32.63;;;0.00;99.90;;;;;;5094048;28;20757;-66
2021/12/05 14:46:55;;;;;;;62.63;31.13;;;-0.10;99.90;;;;;;5094020;28;20652;-64
2021/12/05 14:49:24;;;;;;;67.10;32.13;;;-0.20;99.90;;;;;;5094212;28;20632;-66
2021/12/05 14:51:51;;;;;;;64.60;31.50;;;-0.20;99.90;;;;;;5093859;28;20671;-67
2021/12/05 14:54:24;;;;;;;68.00;32.97;;;-0.20;99.90;;;;;;5093652;28;20215;-66
2021/12/05 14:56:52;;;;;;;69.03;31.53;;;-0.30;99.90;;;;;;5093646;28;20193;-65
2021/12/05 14:59:19;;;;;;;69.07;32.00;;;-0.30;99.90;;;;;;5093640;28;20228;-68
2021/12/05 15:01:50;;;;;;;64.80;31.37;;;-0.30;99.90;;;;;;5093598;28;20199;-65
2021/12/05 15:04:24;;;;;;;71.07;34.33;;;-0.30;99.90;;;;;;5093604;28;20192;-65
2021/12/05 15:06:51;;;;;;;73.00;33.47;;;-0.30;99.90;;;;;;5093391;28;20184;-67
2021/12/05 15:09:23;;;;;;;70.00;33.33;;;-0.30;99.90;;;;;;5093436;28;20196;-66
2021/12/05 15:11:53;;;;;;;69.77;33.60;;;-0.40;99.90;;;;;;5093756;28;20199;-67
2021/12/05 15:14:21;;;;;;;70.40;33.97;;;-0.40;99.90;;;;;;5093672;28;20546;-67
2021/12/05 15:16:54;;;;;;;65.60;32.43;;;-0.40;99.90;;;;;;5093748;28;20641;-66
2021/12/05 15:19:20;;;;;;;68.60;34.40;;;-0.40;99.90;;;;;;5093320;28;20212;-67
2021/12/05 15:21:47;;;;;;;70.40;34.67;;;-0.40;99.90;;;;;;5093349;28;20203;-64
2021/12/05 15:24:15;;;;;;;75.03;33.83;;;-0.50;99.90;;;;;;5092895;28;20208;-67
2021/12/05 15:26:42;;;;;;;72.07;34.67;;;-0.50;99.90;;;;;;5093414;28;20206;-67
2021/12/05 15:29:09;;;;;;;66.27;33.53;;;-0.50;99.90;;;;;;5092694;28;20207;-66
2021/12/05 15:31:38;;;;;;;75.07;34.70;;;-0.50;99.90;;;;;;5093305;28;20231;-66
2021/12/05 15:34:24;;;;;;;71.10;32.23;;;-0.60;99.90;;;;;;5092609;28;20204;-67
2021/12/05 15:36:51;;;;;;;78.03;37.03;;;-0.60;99.90;;;;;;5092867;28;20240;-66
2021/12/05 15:39:22;;;;;;;76.33;37.60;;;-0.60;99.90;;;;;;5093067;28;20705;-66
2021/12/05 15:41:49;;;;;;;69.23;32.40;;;-0.60;99.90;;;;;;5092906;28;20192;-65
2021/12/05 15:44:33;;;;;;;71.17;33.80;;;-0.70;99.90;;;;;;5092986;28;20574;-65
2021/12/05 15:47:03;;;;;;;77.93;35.97;;;-0.70;99.90;;;;;;5091950;28;20196;-66
2021/12/05 15:49:47;;;;;;;76.00;36.03;;;-0.80;99.90;;;;;;5093138;28;20200;-67
2021/12/05 15:52:14;;;;;;;80.57;36.50;;;-0.90;99.90;;;;;;5093147;28;20188;-68
2021/12/05 15:54:43;;;;;;;73.57;35.27;;;-0.90;99.90;;;;;;5092722;28;20206;-66
2021/12/05 15:57:14;;;;;;;79.50;35.50;;;-1.00;99.90;;;;;;5092708;28;20204;-67
2021/12/05 15:59:43;;;;;;;76.57;35.90;;;-1.10;99.90;;;;;;5092639;28;20833;-66
2021/12/05 16:02:11;;;;;;;78.13;35.67;;;-1.10;99.90;;;;;;5092548;28;20225;-67
2021/12/05 16:04:40;;;;;;;75.73;35.77;;;-1.20;99.90;;;;;;5092556;28;20212;-67
2021/12/05 16:07:10;;;;;;;71.83;33.50;;;-1.20;99.90;;;;;;5092278;28;20219;-65
2021/12/05 16:09:38;;;;;;;76.10;36.17;;;-1.30;99.90;;;;;;5092477;28;20189;-66
2021/12/05 16:12:11;;;;;;;79.90;36.50;;;-1.30;99.90;;;;;;5092540;28;20610;-66
2021/12/05 16:14:42;;;;;;;74.47;35.93;;;-1.40;99.90;;;;;;5092622;28;20536;-65
2021/12/05 16:17:23;;;;;;;82.57;36.63;;;-1.40;99.90;;;;;;5092355;28;20195;-66
2021/12/05 16:20:13;;;;;;;77.90;37.80;;;-1.40;99.90;;;;;;5092098;28;20212;-64
2021/12/05 16:23:09;;;;;;;74.73;34.40;;;-1.50;99.90;;;;;;5092337;28;20279;-65
2021/12/05 16:25:39;;;;;;;69.63;33.53;;;-1.50;99.90;;;;;;5092317;28;20200;-66
2021/12/05 16:28:11;;;;;;;75.40;35.43;;;-1.50;99.90;;;;;;5092394;28;20648;-67
2021/12/05 16:30:41;;;;;;;76.47;34.27;;;-1.50;99.90;;;;;;5092314;28;20192;-66
2021/12/05 16:33:09;;;;;;;69.17;31.73;;;-1.60;99.90;;;;;;5091930;28;20215;-66
2021/12/05 16:35:39;;;;;;;62.83;31.50;;;-1.60;99.90;;;;;;5092315;28;20568;-66
2021/12/05 16:38:21;;;;;;;61.00;28.57;;;-1.60;99.90;;;;;;5091719;28;20243;-69
2021/12/05 16:40:59;;;;;;;60.60;29.40;;;-1.70;99.90;;;;;;5092159;28;20188;-65
2021/12/05 16:43:28;;;;;;;63.27;30.70;;;-1.60;99.90;;;;;;5092105;28;20530;-66
2021/12/05 16:46:07;;;;;;;61.57;30.47;;;-1.60;99.90;;;;;;5091879;28;20583;-66
2021/12/05 16:48:36;;;;;;;65.07;31.43;;;-1.60;99.90;;;;;;5092165;28;20269;-67
2021/12/05 16:51:18;;;;;;;68.67;33.57;;;-1.60;99.90;;;;;;5091966;28;20207;-68
2021/12/05 16:53:50;;;;;;;69.20;33.00;;;-1.60;99.90;;;;;;5091645;28;20192;-65